Time;durP1;ratioP1;P1;durP2;ratioP2;P2;SDS_P1;SDS_P2;PMS_P1;PMS_P2;Temp;Humidity;BMP_temperature;BMP_pressure;BME280_temperature;BME280_humidity;BME280_pressure;Samples;Min_cycle;Max_cycle;Signal;HPM_P1;HPM_P2
2023/09/16 00:01:39;;;;;;;57.77;3.73;;;;;;;;;;4939675;29;20461;-72
2023/09/16 00:04:07;;;;;;;58.50;3.53;;;;;;;;;;4947999;28;20465;-72
2023/09/16 00:06:34;;;;;;;57.33;3.40;;;;;;;;;;4937615;29;20567;-72
2023/09/16 00:09:01;;;;;;;61.00;4.90;;;;;;;;;;4935929;28;20481;-70
2023/09/16 00:11:29;;;;;;;61.30;4.10;;;;;;;;;;4934251;29;20479;-72
2023/09/16 00:13:58;;;;;;;57.07;3.10;;;;;;;;;;4934055;29;20465;-72
2023/09/16 00:16:25;;;;;;;57.30;3.37;;;;;;;;;;4933986;29;20509;-72
2023/09/16 00:18:52;;;;;;;58.63;3.80;;;;;;;;;;4933771;29;20548;-72
2023/09/16 00:21:20;;;;;;;56.83;3.03;;;;;;;;;;4933932;29;20454;-72
2023/09/16 00:23:47;;;;;;;57.53;4.10;;;;;;;;;;4933955;29;20875;-73
2023/09/16 00:26:15;;;;;;;58.07;3.67;;;;;;;;;;4952424;29;20544;-73
2023/09/16 00:28:42;;;;;;;57.70;3.10;;;;;;;;;;4953111;28;20449;-72
2023/09/16 00:31:11;;;;;;;58.00;4.50;;;;;;;;;;4953106;28;20475;-72
2023/09/16 00:33:38;;;;;;;57.80;2.97;;;;;;;;;;4952914;28;20929;-72
2023/09/16 00:36:06;;;;;;;57.60;3.53;;;;;;;;;;4952657;28;20465;-70
2023/09/16 00:38:33;;;;;;;59.00;4.03;;;;;;;;;;4952361;28;20493;-73
2023/09/16 00:41:00;;;;;;;57.30;3.17;;;;;;;;;;4953066;28;20453;-72
2023/09/16 00:43:27;;;;;;;59.07;3.13;;;;;;;;;;4952898;28;20441;-73
2023/09/16 00:45:54;;;;;;;58.17;3.47;;;;;;;;;;4955418;28;20459;-72
2023/09/16 00:48:23;;;;;;;57.40;3.53;;;;;;;;;;4956857;28;20448;-73
2023/09/16 00:50:50;;;;;;;58.47;4.80;;;;;;;;;;4956601;28;21028;-73
2023/09/16 00:53:18;;;;;;;58.07;5.13;;;;;;;;;;4956592;28;20803;-71
2023/09/16 00:55:47;;;;;;;57.70;4.33;;;;;;;;;;4956653;28;20461;-72
2023/09/16 00:58:17;;;;;;;57.40;3.07;;;;;;;;;;4956389;28;20496;-73
2023/09/16 01:00:44;;;;;;;57.40;3.23;;;;;;;;;;4956663;28;20460;-73
2023/09/16 01:03:11;;;;;;;57.67;4.10;;;;;;;;;;4953428;28;20460;-73
2023/09/16 01:05:40;;;;;;;57.80;3.53;;;;;;;;;;4937454;29;20446;-73
2023/09/16 01:08:10;;;;;;;57.60;3.30;;;;;;;;;;4938671;29;20528;-72
2023/09/16 01:10:40;;;;;;;57.10;3.00;;;;;;;;;;4948435;28;20456;-72
2023/09/16 01:13:07;;;;;;;57.50;3.40;;;;;;;;;;4938449;28;20485;-72
2023/09/16 01:15:37;;;;;;;57.83;3.77;;;;;;;;;;4937353;29;20450;-72
2023/09/16 01:18:06;;;;;;;57.07;2.93;;;;;;;;;;4953990;29;20484;-72
2023/09/16 01:20:33;;;;;;;57.23;3.53;;;;;;;;;;4956241;28;20449;-72
2023/09/16 01:23:02;;;;;;;57.00;2.90;;;;;;;;;;4956072;28;20490;-72
2023/09/16 01:25:30;;;;;;;58.37;4.17;;;;;;;;;;4956011;28;20447;-72
2023/09/16 01:27:57;;;;;;;57.20;3.53;;;;;;;;;;4955910;28;20464;-72
2023/09/16 01:30:26;;;;;;;58.03;4.57;;;;;;;;;;4955145;28;20463;-72
2023/09/16 01:32:55;;;;;;;57.17;3.60;;;;;;;;;;4946744;28;20450;-73
2023/09/16 01:35:25;;;;;;;56.87;2.70;;;;;;;;;;4946936;29;20451;-72
2023/09/16 01:37:53;;;;;;;57.50;4.07;;;;;;;;;;4955137;28;20496;-72
2023/09/16 01:40:23;;;;;;;57.07;3.00;;;;;;;;;;4943402;28;20954;-72
2023/09/16 01:42:52;;;;;;;58.30;3.97;;;;;;;;;;4935520;29;20465;-72
2023/09/16 01:45:20;;;;;;;57.93;3.63;;;;;;;;;;4954363;29;20445;-73
2023/09/16 01:47:48;;;;;;;57.30;3.00;;;;;;;;;;4954160;28;20485;-73
2023/09/16 01:50:15;;;;;;;57.90;3.70;;;;;;;;;;4954783;28;20461;-73
2023/09/16 01:52:42;;;;;;;57.00;3.47;;;;;;;;;;4954805;28;20453;-73
2023/09/16 01:55:10;;;;;;;57.57;3.17;;;;;;;;;;4961008;28;20457;-72
2023/09/16 01:57:37;;;;;;;57.17;2.60;;;;;;;;;;4967756;28;20990;-73
2023/09/16 02:00:06;;;;;;;57.77;3.37;;;;;;;;;;4955877;28;20449;-73
2023/09/16 02:02:33;;;;;;;57.37;3.27;;;;;;;;;;4954376;28;20753;-73
2023/09/16 02:05:01;;;;;;;57.80;3.93;;;;;;;;;;4953743;28;20459;-73
2023/09/16 02:07:28;;;;;;;57.50;2.80;;;;;;;;;;4941962;28;20829;-72
2023/09/16 02:09:55;;;;;;;57.67;3.50;;;;;;;;;;4935292;29;20446;-73
2023/09/16 02:12:23;;;;;;;57.97;3.63;;;;;;;;;;4935026;29;20954;-73
2023/09/16 02:14:51;;;;;;;57.10;2.90;;;;;;;;;;4941978;29;20453;-71
2023/09/16 02:17:19;;;;;;;57.47;3.40;;;;;;;;;;4953774;28;20504;-72
2023/09/16 02:19:47;;;;;;;57.50;3.30;;;;;;;;;;4953623;28;20500;-72
2023/09/16 02:22:14;;;;;;;57.67;3.63;;;;;;;;;;4954155;28;20458;-73
2023/09/16 02:24:42;;;;;;;57.10;2.90;;;;;;;;;;4954102;28;20453;-73
2023/09/16 02:27:09;;;;;;;57.30;3.20;;;;;;;;;;4953594;28;20479;-73
2023/09/16 02:29:36;;;;;;;57.23;3.37;;;;;;;;;;4953708;28;20904;-73
2023/09/16 02:32:03;;;;;;;58.47;4.73;;;;;;;;;;4953753;28;20449;-73
2023/09/16 02:34:33;;;;;;;57.20;2.97;;;;;;;;;;4953528;28;20449;-73
2023/09/16 02:37:00;;;;;;;57.17;2.80;;;;;;;;;;4953316;28;20479;-73
2023/09/16 02:39:27;;;;;;;57.77;3.33;;;;;;;;;;4917141;28;1089921;-72
2023/09/16 02:41:54;;;;;;;58.00;3.77;;;;;;;;;;4954635;28;20217;-71
2023/09/16 02:44:21;;;;;;;58.10;3.97;;;;;;;;;;4954645;28;20456;-72
2023/09/16 02:46:48;;;;;;;57.30;3.30;;;;;;;;;;4954029;28;20479;-71
2023/09/16 02:49:16;;;;;;;57.33;3.30;;;;;;;;;;4954576;28;20821;-72
2023/09/16 02:51:44;;;;;;;57.10;3.43;;;;;;;;;;4954497;28;20453;-71
2023/09/16 02:54:11;;;;;;;57.50;3.73;;;;;;;;;;4954314;28;20950;-72
2023/09/16 02:56:38;;;;;;;57.40;2.93;;;;;;;;;;4954146;28;20537;-72
2023/09/16 02:59:05;;;;;;;57.30;3.27;;;;;;;;;;4954131;28;20572;-72
2023/09/16 03:01:32;;;;;;;56.70;2.80;;;;;;;;;;4954168;28;20960;-72
2023/09/16 03:03:59;;;;;;;57.67;3.10;;;;;;;;;;4954229;28;20452;-72
2023/09/16 03:06:27;;;;;;;58.10;4.07;;;;;;;;;;4954123;28;20572;-72
2023/09/16 03:08:55;;;;;;;57.00;3.17;;;;;;;;;;4953335;28;20829;-73
2023/09/16 03:11:22;;;;;;;57.80;2.87;;;;;;;;;;4953977;28;20482;-73
2023/09/16 03:13:49;;;;;;;57.07;3.23;;;;;;;;;;4953911;28;20460;-74
2023/09/16 03:16:18;;;;;;;57.83;3.60;;;;;;;;;;4953852;28;20473;-73
2023/09/16 03:18:46;;;;;;;58.47;3.17;;;;;;;;;;4954015;28;20492;-73
2023/09/16 03:21:13;;;;;;;57.20;3.67;;;;;;;;;;4953752;28;20988;-73
2023/09/16 03:23:41;;;;;;;57.43;3.30;;;;;;;;;;4953974;28;20453;-73
2023/09/16 03:26:10;;;;;;;56.97;3.23;;;;;;;;;;4953001;28;20467;-73
2023/09/16 03:28:37;;;;;;;58.03;3.70;;;;;;;;;;4952580;28;20873;-73
2023/09/16 03:31:04;;;;;;;57.77;3.77;;;;;;;;;;4945132;28;20458;-73
2023/09/16 03:33:31;;;;;;;57.00;2.87;;;;;;;;;;4934500;29;20449;-72
2023/09/16 03:35:58;;;;;;;56.83;2.63;;;;;;;;;;4934373;29;20460;-73
2023/09/16 03:38:30;;;;;;;57.47;3.50;;;;;;;;;;4953418;28;20457;-73
2023/09/16 03:40:58;;;;;;;56.97;2.97;;;;;;;;;;4953491;28;20456;-72
2023/09/16 03:43:26;;;;;;;59.00;4.33;;;;;;;;;;4953658;28;20453;-73
2023/09/16 03:45:53;;;;;;;57.20;3.07;;;;;;;;;;4953287;28;20941;-73
2023/09/16 03:48:21;;;;;;;58.50;3.63;;;;;;;;;;4953187;28;20563;-74
2023/09/16 03:50:48;;;;;;;57.20;3.27;;;;;;;;;;4953510;28;20461;-71
2023/09/16 03:53:15;;;;;;;58.03;3.30;;;;;;;;;;4953227;28;20453;-73
2023/09/16 03:55:42;;;;;;;58.10;3.97;;;;;;;;;;4953043;28;20459;-70
2023/09/16 03:58:09;;;;;;;56.77;2.50;;;;;;;;;;4953284;28;20479;-73
2023/09/16 04:00:38;;;;;;;57.30;2.90;;;;;;;;;;4955963;28;20521;-72
2023/09/16 04:03:05;;;;;;;57.17;3.63;;;;;;;;;;4962558;29;20456;-73
2023/09/16 04:05:32;;;;;;;57.33;3.33;;;;;;;;;;4953376;28;20457;-74
2023/09/16 04:07:59;;;;;;;57.03;3.23;;;;;;;;;;4952936;28;20499;-74
2023/09/16 04:10:26;;;;;;;56.63;2.90;;;;;;;;;;4953041;28;20488;-73
2023/09/16 04:12:53;;;;;;;57.80;3.33;;;;;;;;;;4953012;28;20453;-73
2023/09/16 04:15:20;;;;;;;56.70;2.50;;;;;;;;;;4953178;28;20459;-71
2023/09/16 04:17:51;;;;;;;57.30;3.13;;;;;;;;;;4952694;28;20468;-73
2023/09/16 04:20:19;;;;;;;57.00;3.07;;;;;;;;;;4952907;28;20894;-74
2023/09/16 04:22:46;;;;;;;57.17;2.90;;;;;;;;;;4952850;28;20968;-73
2023/09/16 04:25:13;;;;;;;57.47;3.00;;;;;;;;;;4952794;28;20453;-73
2023/09/16 04:27:40;;;;;;;57.60;3.07;;;;;;;;;;4952959;28;20468;-73
2023/09/16 04:30:08;;;;;;;57.10;2.97;;;;;;;;;;4952659;28;20499;-73
2023/09/16 04:32:35;;;;;;;58.20;4.50;;;;;;;;;;4952764;28;21093;-72
2023/09/16 04:35:04;;;;;;;57.30;2.67;;;;;;;;;;4952622;28;20453;-73
2023/09/16 04:37:31;;;;;;;57.00;2.80;;;;;;;;;;4952603;28;20508;-73
2023/09/16 04:39:58;;;;;;;57.40;3.07;;;;;;;;;;4945701;28;20934;-74
2023/09/16 04:42:30;;;;;;;57.23;2.90;;;;;;;;;;4952412;29;20469;-73
2023/09/16 04:44:58;;;;;;;57.00;2.83;;;;;;;;;;4952910;28;20807;-71
2023/09/16 04:47:25;;;;;;;56.67;2.40;;;;;;;;;;4952351;28;20473;-72
2023/09/16 04:49:52;;;;;;;57.73;3.80;;;;;;;;;;4952646;28;20496;-73
2023/09/16 04:52:21;;;;;;;56.80;2.40;;;;;;;;;;4952926;28;20488;-72
2023/09/16 04:54:48;;;;;;;56.77;2.40;;;;;;;;;;4952987;28;20455;-73
2023/09/16 04:57:15;;;;;;;57.73;4.17;;;;;;;;;;4952626;28;20553;-73
2023/09/16 04:59:45;;;;;;;56.50;2.43;;;;;;;;;;4952808;28;20972;-73
2023/09/16 05:02:12;;;;;;;57.33;3.97;;;;;;;;;;4952514;28;20463;-73
2023/09/16 05:04:39;;;;;;;56.90;2.50;;;;;;;;;;4952776;28;20818;-73
2023/09/16 05:07:06;;;;;;;57.00;2.93;;;;;;;;;;4952118;28;20483;-73
2023/09/16 05:09:36;;;;;;;56.90;2.67;;;;;;;;;;4952631;28;20493;-73
2023/09/16 05:12:03;;;;;;;56.90;2.67;;;;;;;;;;4952731;28;20448;-74
2023/09/16 05:14:30;;;;;;;57.73;3.30;;;;;;;;;;4952433;28;20449;-73
2023/09/16 05:16:57;;;;;;;57.50;4.00;;;;;;;;;;4952170;28;20999;-73
2023/09/16 05:19:24;;;;;;;57.33;3.80;;;;;;;;;;4952683;28;20794;-73
2023/09/16 05:21:51;;;;;;;56.87;3.00;;;;;;;;;;4952628;28;20449;-73
2023/09/16 05:24:18;;;;;;;57.57;3.33;;;;;;;;;;4950911;28;20452;-72
2023/09/16 05:26:47;;;;;;;57.20;3.10;;;;;;;;;;4951996;28;20481;-73
2023/09/16 05:29:14;;;;;;;56.87;2.70;;;;;;;;;;4951861;28;20512;-72
2023/09/16 05:31:41;;;;;;;58.60;3.07;;;;;;;;;;4942209;28;20457;-73
2023/09/16 05:34:08;;;;;;;57.93;3.53;;;;;;;;;;4944445;29;20978;-73
2023/09/16 05:36:35;;;;;;;57.20;3.00;;;;;;;;;;4936420;29;20572;-74
2023/09/16 05:39:02;;;;;;;56.63;2.60;;;;;;;;;;4944082;29;20479;-72
2023/09/16 05:41:29;;;;;;;56.77;2.80;;;;;;;;;;4955744;28;20828;-72
2023/09/16 05:43:58;;;;;;;56.90;2.83;;;;;;;;;;4955678;28;20452;-73
2023/09/16 05:46:25;;;;;;;57.57;2.87;;;;;;;;;;4955251;28;20472;-73
2023/09/16 05:48:56;;;;;;;58.60;3.67;;;;;;;;;;4955652;28;20547;-72
2023/09/16 05:51:23;;;;;;;57.07;2.90;;;;;;;;;;4955460;28;20832;-73
2023/09/16 05:53:50;;;;;;;57.40;3.20;;;;;;;;;;4955694;28;20453;-73
2023/09/16 05:56:17;;;;;;;57.37;3.27;;;;;;;;;;4955205;28;20468;-73
2023/09/16 05:58:44;;;;;;;57.00;2.90;;;;;;;;;;4955574;28;20456;-73
2023/09/16 06:01:12;;;;;;;57.60;3.50;;;;;;;;;;4955479;28;20449;-73
2023/09/16 06:03:39;;;;;;;58.30;4.40;;;;;;;;;;4955485;28;20456;-72
2023/09/16 06:06:07;;;;;;;57.57;3.50;;;;;;;;;;4955393;28;20464;-72
2023/09/16 06:08:34;;;;;;;58.33;4.23;;;;;;;;;;4967811;28;20441;-71
2023/09/16 06:11:01;;;;;;;57.70;3.33;;;;;;;;;;4964664;28;20573;-73
2023/09/16 06:13:28;;;;;;;58.10;3.93;;;;;;;;;;4955916;28;20449;-74
2023/09/16 06:15:55;;;;;;;57.20;2.70;;;;;;;;;;4955194;28;20457;-74
2023/09/16 06:18:23;;;;;;;57.10;3.30;;;;;;;;;;4955180;28;20476;-74
2023/09/16 06:20:50;;;;;;;57.10;3.20;;;;;;;;;;4955147;28;20445;-74
2023/09/16 06:23:18;;;;;;;56.47;2.80;;;;;;;;;;4954861;28;20449;-74
2023/09/16 06:25:45;;;;;;;56.97;2.93;;;;;;;;;;4954944;28;20453;-70
2023/09/16 06:28:12;;;;;;;57.60;3.20;;;;;;;;;;4954548;28;20476;-72
2023/09/16 06:30:39;;;;;;;57.20;3.10;;;;;;;;;;4954985;28;20496;-70
2023/09/16 06:33:06;;;;;;;57.17;3.13;;;;;;;;;;4954820;28;20449;-71
2023/09/16 06:35:34;;;;;;;57.03;2.97;;;;;;;;;;4954704;28;20448;-70
2023/09/16 06:38:01;;;;;;;57.20;3.80;;;;;;;;;;4954250;28;20491;-71
2023/09/16 06:40:28;;;;;;;57.10;3.80;;;;;;;;;;4954664;28;20451;-72
2023/09/16 06:42:56;;;;;;;57.67;2.67;;;;;;;;;;4953441;28;20459;-72
2023/09/16 06:45:23;;;;;;;57.60;3.43;;;;;;;;;;4954540;28;20449;-72
2023/09/16 06:47:50;;;;;;;57.40;2.90;;;;;;;;;;4954253;28;20484;-72
2023/09/16 06:50:17;;;;;;;56.90;2.80;;;;;;;;;;4954420;28;20488;-71
2023/09/16 06:52:45;;;;;;;57.17;2.90;;;;;;;;;;4954298;28;20456;-72
2023/09/16 06:55:12;;;;;;;56.70;2.80;;;;;;;;;;4954535;28;20560;-72
2023/09/16 06:57:39;;;;;;;56.97;2.90;;;;;;;;;;4954096;28;20473;-70
2023/09/16 07:00:07;;;;;;;57.10;3.40;;;;;;;;;;4954318;28;20455;-72
2023/09/16 07:02:34;;;;;;;57.20;3.27;;;;;;;;;;4954290;28;20459;-72
2023/09/16 07:05:02;;;;;;;56.90;2.97;;;;;;;;;;4954004;28;20452;-72
2023/09/16 07:07:29;;;;;;;57.00;3.40;;;;;;;;;;4953921;28;20473;-72
2023/09/16 07:09:57;;;;;;;57.17;3.63;;;;;;;;;;4954112;28;20498;-71
2023/09/16 07:12:25;;;;;;;56.90;3.40;;;;;;;;;;4954047;28;20459;-71
2023/09/16 07:14:52;;;;;;;57.37;3.47;;;;;;;;;;4954009;28;20786;-72
2023/09/16 07:17:19;;;;;;;57.87;3.20;;;;;;;;;;4953669;28;20479;-72
2023/09/16 07:19:46;;;;;;;56.97;3.37;;;;;;;;;;4953832;28;20445;-72
2023/09/16 07:22:13;;;;;;;57.43;3.33;;;;;;;;;;4953967;28;20457;-72
2023/09/16 07:24:40;;;;;;;57.77;4.43;;;;;;;;;;4953641;28;20457;-72
2023/09/16 07:27:08;;;;;;;56.53;2.70;;;;;;;;;;4953415;28;20484;-72
2023/09/16 07:29:35;;;;;;;56.97;3.50;;;;;;;;;;4953590;28;20845;-72
2023/09/16 07:32:03;;;;;;;57.00;3.20;;;;;;;;;;4953667;28;21049;-72
2023/09/16 07:34:30;;;;;;;57.10;3.17;;;;;;;;;;4953727;28;20451;-72
2023/09/16 07:36:58;;;;;;;57.53;3.40;;;;;;;;;;4953633;28;20465;-71
2023/09/16 07:39:25;;;;;;;56.50;2.73;;;;;;;;;;4953512;28;20496;-71
2023/09/16 07:41:52;;;;;;;58.07;3.60;;;;;;;;;;4953571;28;20449;-72
2023/09/16 07:44:21;;;;;;;56.60;3.00;;;;;;;;;;4953412;28;20455;-71
2023/09/16 07:46:48;;;;;;;59.47;3.53;;;;;;;;;;4953038;28;20989;-73
2023/09/16 07:49:15;;;;;;;57.07;3.03;;;;;;;;;;4953578;28;20453;-72
2023/09/16 07:51:46;;;;;;;58.13;3.50;;;;;;;;;;4953275;28;20495;-72
2023/09/16 07:54:13;;;;;;;57.00;3.00;;;;;;;;;;4953102;28;20460;-69
2023/09/16 07:56:40;;;;;;;56.87;2.87;;;;;;;;;;4953057;28;20469;-73
2023/09/16 07:59:07;;;;;;;57.40;3.57;;;;;;;;;;4953391;28;20456;-72
2023/09/16 08:01:36;;;;;;;57.00;3.23;;;;;;;;;;4953199;28;20444;-73
2023/09/16 08:04:03;;;;;;;56.80;3.00;;;;;;;;;;4953109;28;20973;-71
2023/09/16 08:06:30;;;;;;;58.90;3.97;;;;;;;;;;4952949;28;20811;-73
2023/09/16 08:08:58;;;;;;;56.90;2.80;;;;;;;;;;4953036;28;20483;-73
2023/09/16 08:11:25;;;;;;;56.53;2.80;;;;;;;;;;4952883;28;20497;-72
2023/09/16 08:13:52;;;;;;;57.20;3.20;;;;;;;;;;4952942;28;20456;-73
2023/09/16 08:16:19;;;;;;;57.57;3.50;;;;;;;;;;4953845;28;20472;-72
2023/09/16 08:18:48;;;;;;;57.20;3.13;;;;;;;;;;4955040;28;20452;-73
2023/09/16 08:21:15;;;;;;;58.03;3.20;;;;;;;;;;4952843;28;20475;-71
2023/09/16 08:23:42;;;;;;;57.23;3.07;;;;;;;;;;4952980;28;20463;-72
2023/09/16 08:26:09;;;;;;;57.87;4.60;;;;;;;;;;4952648;28;20452;-73
2023/09/16 08:28:36;;;;;;;57.33;3.10;;;;;;;;;;4952589;28;20455;-73
2023/09/16 08:31:04;;;;;;;57.50;3.07;;;;;;;;;;4952925;28;20884;-71
2023/09/16 08:33:31;;;;;;;57.37;3.03;;;;;;;;;;4952899;28;20460;-73
2023/09/16 08:35:59;;;;;;;56.93;2.70;;;;;;;;;;4952565;28;20457;-73
2023/09/16 08:38:27;;;;;;;57.47;3.10;;;;;;;;;;4952615;28;20465;-73
2023/09/16 08:40:57;;;;;;;56.87;2.60;;;;;;;;;;4952629;28;20456;-72
2023/09/16 08:43:28;;;;;;;57.40;3.53;;;;;;;;;;4952899;28;20524;-71
2023/09/16 08:45:57;;;;;;;57.70;3.17;;;;;;;;;;4952554;28;20463;-72
2023/09/16 08:48:27;;;;;;;57.60;3.00;;;;;;;;;;4952805;28;20461;-72
2023/09/16 08:50:54;;;;;;;57.30;3.10;;;;;;;;;;4953046;28;20732;-72
2023/09/16 08:53:26;;;;;;;56.93;2.70;;;;;;;;;;4952608;28;20445;-73
2023/09/16 08:55:55;;;;;;;57.10;2.90;;;;;;;;;;4952725;28;20467;-73
2023/09/16 08:58:22;;;;;;;57.07;2.60;;;;;;;;;;4952552;28;20912;-73
2023/09/16 09:00:50;;;;;;;57.67;2.80;;;;;;;;;;4952597;28;20461;-73
2023/09/16 09:03:17;;;;;;;57.50;3.10;;;;;;;;;;4944638;28;20456;-71
2023/09/16 09:05:45;;;;;;;56.50;2.40;;;;;;;;;;4953402;28;20828;-72
2023/09/16 09:08:12;;;;;;;57.63;3.13;;;;;;;;;;4956089;28;20476;-73
2023/09/16 09:10:41;;;;;;;58.37;2.97;;;;;;;;;;4956132;28;20498;-73
2023/09/16 09:13:12;;;;;;;57.70;3.60;;;;;;;;;;4956333;28;20824;-73
2023/09/16 09:15:39;;;;;;;57.07;2.90;;;;;;;;;;4956197;28;20452;-72
2023/09/16 09:18:07;;;;;;;57.57;3.03;;;;;;;;;;4955854;28;20475;-71
2023/09/16 09:20:34;;;;;;;57.97;3.33;;;;;;;;;;4956010;28;20773;-74
2023/09/16 09:23:02;;;;;;;57.80;3.40;;;;;;;;;;4956317;28;20472;-74
2023/09/16 09:25:31;;;;;;;57.20;2.87;;;;;;;;;;4955744;28;21043;-73
2023/09/16 09:27:59;;;;;;;57.30;3.03;;;;;;;;;;4955998;28;20535;-73
2023/09/16 09:30:27;;;;;;;58.10;3.70;;;;;;;;;;4955873;28;20578;-73
2023/09/16 09:32:55;;;;;;;56.87;2.83;;;;;;;;;;4955711;28;20845;-73
2023/09/16 09:35:23;;;;;;;58.00;3.50;;;;;;;;;;4955557;28;20452;-73
2023/09/16 09:37:51;;;;;;;56.80;2.80;;;;;;;;;;4955357;28;20484;-73
2023/09/16 09:40:18;;;;;;;56.83;2.63;;;;;;;;;;4955925;28;20460;-74
2023/09/16 09:42:46;;;;;;;57.20;2.50;;;;;;;;;;4936620;29;20456;-73
2023/09/16 09:45:15;;;;;;;57.40;3.03;;;;;;;;;;4936604;29;20445;-73
2023/09/16 09:47:42;;;;;;;56.60;2.63;;;;;;;;;;4936512;29;20953;-74
2023/09/16 09:50:14;;;;;;;56.37;2.40;;;;;;;;;;4936544;29;20445;-72
2023/09/16 09:52:46;;;;;;;56.40;2.47;;;;;;;;;;4936490;29;20838;-72
2023/09/16 09:55:14;;;;;;;56.67;2.40;;;;;;;;;;4936465;29;20528;-73
2023/09/16 09:57:41;;;;;;;55.87;2.20;;;;;;;;;;4935966;29;20475;-72
2023/09/16 10:00:09;;;;;;;56.17;2.40;;;;;;;;;;4936228;29;20449;-72
2023/09/16 10:02:40;;;;;;;55.97;2.20;;;;;;;;;;4936290;29;20954;-72
2023/09/16 10:05:08;;;;;;;55.90;2.20;;;;;;;;;;4936278;29;20483;-71
2023/09/16 10:07:35;;;;;;;55.80;2.10;;;;;;;;;;4935845;29;20473;-72
2023/09/16 10:10:02;;;;;;;56.30;2.40;;;;;;;;;;4936172;29;20833;-72
2023/09/16 10:12:30;;;;;;;55.77;1.90;;;;;;;;;;4947882;29;20539;-73
2023/09/16 10:14:57;;;;;;;55.50;1.93;;;;;;;;;;4948204;29;20454;-73
2023/09/16 10:17:25;;;;;;;55.80;2.00;;;;;;;;;;4939803;29;20461;-73
2023/09/16 10:19:53;;;;;;;55.57;2.03;;;;;;;;;;4943596;29;20453;-73
2023/09/16 10:22:21;;;;;;;55.90;2.23;;;;;;;;;;4943736;29;20499;-71
2023/09/16 10:24:49;;;;;;;55.60;2.10;;;;;;;;;;4946754;28;20452;-72
2023/09/16 10:27:20;;;;;;;54.97;2.30;;;;;;;;;;4939318;28;20955;-71
2023/09/16 10:29:48;;;;;;;55.27;2.43;;;;;;;;;;4936053;29;20449;-73
2023/09/16 10:32:16;;;;;;;54.97;2.33;;;;;;;;;;4935808;29;20450;-74
2023/09/16 10:34:45;;;;;;;55.83;2.30;;;;;;;;;;4936076;29;20450;-73
2023/09/16 10:37:16;;;;;;;54.90;2.30;;;;;;;;;;4935424;29;20918;-72
2023/09/16 10:39:44;;;;;;;54.83;2.20;;;;;;;;;;4935347;29;20450;-73
2023/09/16 10:42:12;;;;;;;54.83;2.20;;;;;;;;;;4935660;29;20511;-73
2023/09/16 10:44:41;;;;;;;54.87;2.30;;;;;;;;;;4935398;29;20449;-73
2023/09/16 10:47:08;;;;;;;54.80;2.10;;;;;;;;;;4935154;29;20962;-72
2023/09/16 10:49:35;;;;;;;55.00;2.10;;;;;;;;;;4935294;29;20972;-72
2023/09/16 10:52:04;;;;;;;54.67;2.00;;;;;;;;;;4935274;29;20523;-70
2023/09/16 10:54:37;;;;;;;55.30;2.10;;;;;;;;;;4935013;29;20454;-72
2023/09/16 10:57:08;;;;;;;55.00;2.10;;;;;;;;;;4935115;29;20480;-73
2023/09/16 10:59:36;;;;;;;55.53;2.33;;;;;;;;;;4935315;29;20456;-72
2023/09/16 11:02:08;;;;;;;55.03;2.43;;;;;;;;;;4934992;29;21002;-73
2023/09/16 11:04:35;;;;;;;55.47;2.50;;;;;;;;;;4934822;29;20840;-72
2023/09/16 11:07:02;;;;;;;54.57;2.20;;;;;;;;;;4934815;29;20474;-72
2023/09/16 11:09:30;;;;;;;54.60;2.00;;;;;;;;;;4935049;29;20809;-73
2023/09/16 11:11:59;;;;;;;55.93;2.20;;;;;;;;;;4935042;29;20454;-70
2023/09/16 11:14:26;;;;;;;55.00;2.23;;;;;;;;;;4934946;29;20875;-73
2023/09/16 11:16:53;;;;;;;54.80;2.17;;;;;;;;;;4934476;29;21004;-72
2023/09/16 11:19:21;;;;;;;54.97;2.13;;;;;;;;;;4934714;29;20458;-73
2023/09/16 11:21:48;;;;;;;55.40;2.60;;;;;;;;;;4934744;29;20493;-74
2023/09/16 11:24:15;;;;;;;54.70;2.13;;;;;;;;;;4934544;29;20650;-73
2023/09/16 11:26:42;;;;;;;54.77;2.20;;;;;;;;;;4934162;29;21002;-73
2023/09/16 11:29:21;;;;;;;55.20;2.20;;;;;;;;;;4934014;29;20477;-72
2023/09/16 11:31:48;;;;;;;54.87;2.03;;;;;;;;;;4934443;29;20449;-72
2023/09/16 11:34:17;;;;;;;55.03;1.83;;;;;;;;;;4934724;29;20453;-72
2023/09/16 11:36:45;;;;;;;55.00;2.30;;;;;;;;;;4934012;29;20473;-72
2023/09/16 11:39:18;;;;;;;55.37;2.40;;;;;;;;;;4934458;29;20461;-72
2023/09/16 11:41:46;;;;;;;54.60;2.10;;;;;;;;;;4934176;29;20494;-72
2023/09/16 11:44:13;;;;;;;54.87;1.93;;;;;;;;;;4934308;29;20707;-72
2023/09/16 11:46:42;;;;;;;54.30;2.20;;;;;;;;;;4934091;29;20470;-72
2023/09/16 11:49:09;;;;;;;56.07;2.20;;;;;;;;;;4934447;29;20457;-72
2023/09/16 11:51:37;;;;;;;54.60;1.90;;;;;;;;;;4934128;29;20450;-71
2023/09/16 11:54:04;;;;;;;54.60;2.00;;;;;;;;;;4934231;29;20456;-71
2023/09/16 11:56:34;;;;;;;54.77;2.27;;;;;;;;;;4933925;29;20481;-70
2023/09/16 11:59:02;;;;;;;54.80;2.30;;;;;;;;;;4933907;29;20469;-73
2023/09/16 12:01:30;;;;;;;54.50;2.00;;;;;;;;;;4933921;29;21013;-72
2023/09/16 12:04:00;;;;;;;54.77;2.30;;;;;;;;;;4934391;29;20454;-72
2023/09/16 12:06:28;;;;;;;54.80;1.87;;;;;;;;;;4933798;29;20913;-74
2023/09/16 12:08:56;;;;;;;54.43;2.30;;;;;;;;;;4933811;29;20934;-74
2023/09/16 12:11:23;;;;;;;54.93;2.63;;;;;;;;;;4934421;29;20929;-72
2023/09/16 12:13:50;;;;;;;54.50;1.90;;;;;;;;;;4941895;29;20450;-72
2023/09/16 12:16:18;;;;;;;54.70;2.63;;;;;;;;;;4941681;29;20457;-72
2023/09/16 12:18:45;;;;;;;54.47;2.30;;;;;;;;;;4933932;29;20449;-72
2023/09/16 12:21:13;;;;;;;54.50;2.00;;;;;;;;;;4945802;29;20493;-73
2023/09/16 12:23:41;;;;;;;54.27;1.90;;;;;;;;;;4933690;29;20449;-73
2023/09/16 12:26:09;;;;;;;54.50;2.13;;;;;;;;;;4933634;29;20602;-73
2023/09/16 12:28:36;;;;;;;54.47;2.10;;;;;;;;;;4933727;29;20477;-74
2023/09/16 12:31:03;;;;;;;54.40;2.20;;;;;;;;;;4933841;29;20461;-74
2023/09/16 12:33:40;;;;;;;54.17;1.73;;;;;;;;;;4933616;29;20450;-73
2023/09/16 12:36:07;;;;;;;54.27;1.70;;;;;;;;;;4933472;29;20449;-74
2023/09/16 12:38:37;;;;;;;54.67;2.00;;;;;;;;;;4942187;29;20519;-72
2023/09/16 12:41:04;;;;;;;54.73;2.03;;;;;;;;;;4950854;28;20457;-73
2023/09/16 12:43:32;;;;;;;54.77;2.17;;;;;;;;;;4945307;29;20464;-72
2023/09/16 12:46:00;;;;;;;55.10;2.20;;;;;;;;;;4937545;29;20469;-72
2023/09/16 12:48:27;;;;;;;54.60;1.70;;;;;;;;;;4937523;29;20480;-70
2023/09/16 12:50:55;;;;;;;54.43;1.80;;;;;;;;;;4937401;29;20500;-71
2023/09/16 12:53:22;;;;;;;54.60;1.90;;;;;;;;;;4937382;29;21001;-72
2023/09/16 12:55:51;;;;;;;54.30;1.70;;;;;;;;;;4937413;29;20812;-71
2023/09/16 12:58:18;;;;;;;54.50;2.00;;;;;;;;;;4937275;29;20477;-72
2023/09/16 13:00:45;;;;;;;54.27;1.80;;;;;;;;;;4937386;29;20596;-72
2023/09/16 13:03:12;;;;;;;54.57;1.87;;;;;;;;;;4937735;29;20496;-73
2023/09/16 13:05:40;;;;;;;54.50;2.00;;;;;;;;;;4937102;29;20462;-72
2023/09/16 13:08:08;;;;;;;54.70;2.03;;;;;;;;;;4936926;29;20484;-73
2023/09/16 13:10:35;;;;;;;54.60;1.80;;;;;;;;;;4937189;29;20806;-73
2023/09/16 13:13:04;;;;;;;54.40;1.87;;;;;;;;;;4937043;29;20953;-73
2023/09/16 13:15:32;;;;;;;54.27;1.70;;;;;;;;;;4937411;29;20957;-73
2023/09/16 13:18:00;;;;;;;54.83;2.03;;;;;;;;;;4936798;29;20512;-72
2023/09/16 13:20:35;;;;;;;54.43;1.77;;;;;;;;;;4936917;29;20454;-71
2023/09/16 13:23:03;;;;;;;54.20;1.80;;;;;;;;;;4949350;29;20484;-73
2023/09/16 13:25:32;;;;;;;54.40;1.90;;;;;;;;;;4955877;28;20459;-70
2023/09/16 13:28:07;;;;;;;54.10;1.70;;;;;;;;;;4955722;28;20472;-72
2023/09/16 13:30:36;;;;;;;54.60;2.30;;;;;;;;;;4955829;28;20456;-72
2023/09/16 13:33:05;;;;;;;54.37;1.80;;;;;;;;;;4956086;28;20503;-72
2023/09/16 13:35:32;;;;;;;54.70;1.70;;;;;;;;;;4955551;28;20453;-72
2023/09/16 13:37:59;;;;;;;54.20;1.80;;;;;;;;;;4955587;28;20488;-72
2023/09/16 13:40:26;;;;;;;54.70;2.10;;;;;;;;;;4955809;28;20452;-71
2023/09/16 13:42:53;;;;;;;54.40;1.70;;;;;;;;;;4955676;28;20607;-72
2023/09/16 13:45:22;;;;;;;54.37;1.67;;;;;;;;;;4955821;28;20450;-71
2023/09/16 13:48:04;;;;;;;54.17;1.87;;;;;;;;;;4955244;28;20468;-72
2023/09/16 13:50:31;;;;;;;54.20;1.77;;;;;;;;;;4955519;28;20456;-71
2023/09/16 13:52:58;;;;;;;54.20;1.90;;;;;;;;;;4954774;28;20448;-72
2023/09/16 13:55:26;;;;;;;54.87;1.93;;;;;;;;;;4955399;28;20457;-72
2023/09/16 13:57:56;;;;;;;54.60;2.00;;;;;;;;;;4955253;28;20473;-73
2023/09/16 14:00:24;;;;;;;54.87;1.90;;;;;;;;;;4955265;28;20971;-71
2023/09/16 14:02:51;;;;;;;54.63;1.90;;;;;;;;;;4955194;28;20878;-72
2023/09/16 14:05:18;;;;;;;55.00;1.80;;;;;;;;;;4955317;28;20465;-72
2023/09/16 14:07:45;;;;;;;55.37;1.90;;;;;;;;;;4954776;28;20484;-71
2023/09/16 14:10:13;;;;;;;55.90;2.30;;;;;;;;;;4955143;28;20490;-71
2023/09/16 14:12:40;;;;;;;55.60;1.80;;;;;;;;;;4953689;28;20460;-72
2023/09/16 14:15:07;;;;;;;55.80;1.83;;;;;;;;;;4950012;29;20464;-71
2023/09/16 14:17:36;;;;;;;55.83;1.80;;;;;;;;;;4938896;28;20482;-71
2023/09/16 14:20:04;;;;;;;55.80;2.03;;;;;;;;;;4942723;28;20454;-72
2023/09/16 14:22:31;;;;;;;55.57;1.77;;;;;;;;;;4935340;29;20516;-72
2023/09/16 14:24:58;;;;;;;55.60;1.93;;;;;;;;;;4935438;29;20478;-72
2023/09/16 14:27:25;;;;;;;55.57;1.80;;;;;;;;;;4935408;29;20504;-72
2023/09/16 14:29:52;;;;;;;55.40;1.97;;;;;;;;;;4935400;29;20453;-72
2023/09/16 14:32:20;;;;;;;55.20;1.80;;;;;;;;;;4935480;29;20450;-71
2023/09/16 14:34:48;;;;;;;54.97;1.57;;;;;;;;;;4935190;29;20973;-72